Inicio METAR Ruta Wind Satelite

Informe Meteorológico

Fecha: 2020/07/02 00:48:26 Local
2020.07.02 05:48 UTC


Estado: VIGENTE
Operación:IFR
Rionegro / J. M. Cordova, Colombia (SKRG) 06-08N 075-26W 2142M
2020.07.02 0500 UTC
Wind: from the S (180 degrees) at 3 MPH (3 KT):0
Visibility: 3 mile(s):0
Sky conditions: mostly cloudy
Weather: light drizzle; Cumulonimbus clouds observed
Temperature: 57 F (14 C)
Dew Point: 57 F (14 C)
Relative Humidity: 100%
Pressure (altimeter): 30.3 in. Hg (1026 hPa)
ob: SKRG 020500Z 18003KT 6000 -DZ BKN007CB SCT070 14/14 A3030 RETSRA NOSIG RMK CB/SE/NW
cycle: 5

SKRG 020400Z VRB02KT 4000 -TSRA BKN008CB SCT070 14/14 A3033 NOSIG RMK CB/NE/SE
SKRG 020300Z 21003KT 5000 -TSRA BKN008CB SCT070 14/14 A3030 NOSIG RMK CB/E/SE
SKRG 020200Z 36004KT 8000 -DZ BKN010TCU SCT080 16/16 A3027 TEMPO FM0300 5000 RA RMK TCU/NE/SE
SKRG 020100Z 05003KT 8000 -DZ BKN010TCU SCT080 16/15 A3026 TEMPO FM0230 TS BKN008CB RMK TCU/NE/SE
SKRG 020000Z 06003KT 9999 VCSH SCT012TCU SCT200 18/15 A3024 NOSIG RMK TCU VCHS/SE/N

2020/07/02 06:58
TAF SKRG 020430Z 0206/0306 VRB02KT 5000 DZRA BKN008TCU
BECMG 0211/0213 3000 BR BKN006
BECMG 0215/0217 14010KT 9999 NSW SCT020
TEMPO 0220/0224 DZ BKN015
BECMG 0301/0303 VRB02KT BKN010
TEMPO 0304/0306 5000 TSRA BKN008CB TX23/0219Z TN13/0209Z